Jingyuan, China
Current Conditions -  °F | °C
As of 11:00 AM on Sunday 21 Dec 2014 (Local Time) from ZLLL Reporting Station
Clear Clear  
Wind Chill: 14°   Ceiling: Unl
Heat Index: 14°   Visibility: 6mi
Dew Point:   Wind: 2mph
Humidity: 57%   Direction: NA
Pressure: 30.39"   Gusts: NA
Location:  36.58°N, 104.67°E
Report Text: ZLLL 210300Z VRB01MPS CAVOK M10/M17 Q1029 NOSIG
Loading
Personal Weather Stations






























Interactive Weather Map New forecast layout! Learn more

10-Day Weather Forecast

Advertisements
Track Severe Weather on mobile